This is the latest recevied weather packets stored in our database for station/object OK1ZDJ-13. If no packets are shown the sender has not sent any weather packets the latest 10 day(s).
| Time | Temp. | Humidity | Pressure | Rain* | Wind** | Luminosity | Snow |
|---|---|---|---|---|---|---|---|
| 1788518453 | 23.89° C | 58% | 1016.7 hPa | - | - | - | - |
| 1788517853 | 23.89° C | 59% | 1017 hPa | - | - | - | - |
| 1788517253 | 24.44° C | 59% | 1016.9 hPa | - | - | - | - |
| 1788516053 | 24.44° C | 62% | 1017.1 hPa | - | - | - | - |
| 1788514253 | 23.33° C | 66% | 1017.5 hPa | - | - | - | - |
| 1788513653 | 22.78° C | 67% | 1017.9 hPa | - | - | - | - |
| 1788513053 | 22.22° C | 67% | 1018 hPa | - | - | - | - |
| 1788511853 | 21.67° C | 70% | 1018.2 hPa | - | - | - | - |
| 1788511253 | 21.11° C | 72% | 1018.4 hPa | - | - | - | - |
| 1788510653 | 20.56° C | 74% | 1018.5 hPa | - | - | - | - |
| 1788510053 | 20.56° C | 75% | 1018.5 hPa | - | - | - | - |
| 1788509464 | 20° C | 79% | 1018.7 hPa | - | - | - | - |
| 1788508852 | 20° C | 80% | 1018.8 hPa | - | - | - | - |
| 1788508252 | 19.44° C | 83% | 1018.8 hPa | - | - | - | - |
| 1788507652 | 19.44° C | 85% | 1018.8 hPa | - | - | - | - |
| 1788507052 | 19.44° C | 85% | 1018.7 hPa | - | - | - | - |
| 1788505854 | 19.44° C | 80% | 1019 hPa | - | - | - | - |
| 1788505252 | 19.44° C | 78% | 1019 hPa | - | - | - | - |
| 1788504652 | 18.89° C | 80% | 1019 hPa | - | - | - | - |
| 1788504052 | 18.33° C | 83% | 1019 hPa | - | - | - | - |
| 1788502852 | 17.78° C | 89% | 1018.9 hPa | - | - | - | - |
| 1788502252 | 17.78° C | 89% | 1018.9 hPa | - | - | - | - |
| 1788501652 | 17.22° C | 90% | 1019.1 hPa | - | - | - | - |
| 1788501052 | 17.22° C | 92% | 1019.1 hPa | - | - | - | - |
| 1788500452 | 17.22° C | 91% | 1019.3 hPa | - | - | - | - |
* Rain since midnight (hover to see other rain measurements)
** Current wind speed in m/s (hover to see current wind gust speed)